Time;durP1;ratioP1;P1;durP2;ratioP2;P2;SDS_P1;SDS_P2;PMS_P1;PMS_P2;Temp;Humidity;BMP_temperature;BMP_pressure;BME280_temperature;BME280_humidity;BME280_pressure;Samples;Min_cycle;Max_cycle;Signal;HPM_P1;HPM_P2
2023/03/30 00:05:04;;;;;;;1.23;0.80;;;;;;;10.69;100.00;97808.13;15279114;19;20074;-73
2023/03/30 00:10:32;;;;;;;1.67;0.95;;;;;;;10.67;100.00;97812.84;15278710;19;20020;-73
2023/03/30 00:15:58;;;;;;;2.63;1.00;;;;;;;10.66;100.00;97806.63;15278716;19;20030;-73
2023/03/30 00:21:22;;;;;;;1.75;1.08;;;;;;;10.66;100.00;97795.00;15272334;19;20018;-73
2023/03/30 00:26:50;;;;;;;1.80;0.90;;;;;;;10.68;100.00;97788.41;15274381;19;20389;-73
2023/03/30 00:32:16;;;;;;;3.10;1.08;;;;;;;10.67;100.00;97794.81;15273140;19;20015;-73
2023/03/30 00:37:44;;;;;;;3.53;1.00;;;;;;;10.68;100.00;97779.50;15276413;19;20014;-73
2023/03/30 00:43:13;;;;;;;1.60;0.95;;;;;;;10.65;100.00;97767.22;15272835;19;20029;-73
2023/03/30 00:48:41;;;;;;;2.30;1.00;;;;;;;10.61;100.00;97752.44;15279118;19;20023;-74
2023/03/30 00:54:12;;;;;;;1.17;0.98;;;;;;;10.61;100.00;97736.28;15281146;19;20035;-73
2023/03/30 00:59:40;;;;;;;2.10;1.00;;;;;;;10.57;100.00;97749.28;15278737;19;20022;-73
2023/03/30 01:05:07;;;;;;;1.30;0.90;;;;;;;10.59;100.00;97755.31;15280940;19;20022;-73
2023/03/30 01:10:33;;;;;;;1.52;0.80;;;;;;;10.63;100.00;97748.56;15276289;19;20082;-73
2023/03/30 01:16:11;;;;;;;2.67;0.80;;;;;;;10.71;100.00;97744.97;15280603;19;20021;-73
2023/03/30 01:22:04;;;;;;;1.35;0.98;;;;;;;10.76;100.00;97739.03;15282416;19;20022;-74
2023/03/30 01:33:52;;;;;;;1.17;0.88;;;;;;;10.77;100.00;97711.09;15339645;19;20022;-77
2023/03/30 01:39:34;;;;;;;;;;;;;;;10.74;100.00;97696.13;15285101;19;20090;-76
2023/03/30 01:45:08;;;;;;;1.13;0.75;;;;;;;10.76;100.00;97693.25;15280698;19;19918;-75
2023/03/30 01:50:40;;;;;;;2.45;1.00;;;;;;;10.80;100.00;97673.00;15277600;19;20010;-74
2023/03/30 01:56:11;;;;;;;2.00;0.98;;;;;;;10.80;100.00;97678.41;15277034;19;20011;-73
2023/03/30 02:01:48;;;;;;;1.73;0.90;;;;;;;10.75;100.00;97672.69;15271429;19;20029;-74
2023/03/30 02:07:18;;;;;;;1.98;0.90;;;;;;;10.71;100.00;97672.22;15274985;19;20083;-75
2023/03/30 02:12:43;;;;;;;2.85;0.98;;;;;;;10.67;100.00;97662.81;15266085;19;20015;-74
2023/03/30 02:18:12;;;;;;;1.55;0.70;;;;;;;10.63;100.00;97670.44;15274761;19;20090;-74
2023/03/30 02:23:40;;;;;;;2.05;0.90;;;;;;;10.58;100.00;97658.53;15271410;19;20023;-73
2023/03/30 02:29:04;;;;;;;2.40;0.85;;;;;;;10.59;100.00;97655.63;15273840;19;20359;-74
2023/03/30 02:34:56;;;;;;;2.40;1.00;;;;;;;10.47;100.00;97657.94;15274687;19;20010;-74
2023/03/30 02:40:39;;;;;;;2.53;1.00;;;;;;;10.46;100.00;97667.03;15272925;19;20018;-75
2023/03/30 02:46:30;;;;;;;1.15;0.75;;;;;;;10.45;100.00;97676.13;15266094;19;20027;-75
2023/03/30 02:52:00;;;;;;;1.80;0.70;;;;;;;10.39;100.00;97671.47;15285386;19;20014;-75
2023/03/30 02:57:35;;;;;;;2.45;0.93;;;;;;;10.30;100.00;97662.56;15287147;19;20023;-75
2023/03/30 03:03:30;;;;;;;1.67;0.90;;;;;;;10.22;100.00;97664.47;15278034;19;20387;-75
2023/03/30 03:08:58;;;;;;;1.13;0.80;;;;;;;10.13;100.00;97667.22;15282065;19;20476;-74
2023/03/30 03:14:25;;;;;;;3.10;1.00;;;;;;;10.13;100.00;97667.22;15283057;19;20060;-74
2023/03/30 03:19:50;;;;;;;1.08;0.90;;;;;;;10.00;100.00;97658.88;15273659;19;20786;-74
2023/03/30 03:25:17;;;;;;;2.28;1.00;;;;;;;9.90;100.00;97658.25;15278881;19;20043;-74
2023/03/30 03:30:46;;;;;;;1.67;0.90;;;;;;;9.78;100.00;97672.09;15276671;19;20025;-73
2023/03/30 03:36:12;;;;;;;3.55;1.00;;;;;;;9.74;100.00;97656.50;15282921;19;20511;-74
2023/03/30 03:41:40;;;;;;;1.48;0.90;;;;;;;9.73;100.00;97654.81;15285201;19;20014;-75
2023/03/30 03:47:05;;;;;;;3.05;0.95;;;;;;;9.70;100.00;97672.16;15284229;19;20023;-74
2023/03/30 03:52:33;;;;;;;1.60;0.90;;;;;;;9.68;100.00;97666.09;15277950;19;20019;-73
2023/03/30 03:58:00;;;;;;;2.95;1.10;;;;;;;9.59;100.00;97662.59;15283544;19;20030;-73
2023/03/30 04:03:25;;;;;;;3.65;1.00;;;;;;;9.68;100.00;97658.84;15279423;19;20089;-73
2023/03/30 04:08:49;;;;;;;1.85;0.93;;;;;;;9.72;100.00;97640.50;15282865;19;20019;-73
2023/03/30 04:14:35;;;;;;;2.33;1.00;;;;;;;9.72;100.00;97637.81;15287487;19;20014;-74
2023/03/30 04:20:22;;;;;;;2.10;0.90;;;;;;;9.73;100.00;97642.19;15286409;19;20007;-73
2023/03/30 04:25:56;;;;;;;2.95;1.00;;;;;;;9.72;100.00;97651.25;15280813;19;20019;-76
2023/03/30 04:31:51;;;;;;;1.33;0.80;;;;;;;9.79;100.00;97654.94;15288389;19;20074;-74
2023/03/30 04:37:29;;;;;;;2.35;1.17;;;;;;;10.00;100.00;97650.81;15284823;19;20014;-74
2023/03/30 04:43:18;;;;;;;2.55;1.10;;;;;;;10.01;100.00;97636.34;15285592;19;20019;-74
2023/03/30 04:49:15;;;;;;;1.60;1.40;;;;;;;10.13;100.00;97650.22;15283498;19;20018;-74
2023/03/30 04:54:59;;;;;;;3.63;1.58;;;;;;;10.15;100.00;97632.88;15287490;19;20014;-74
2023/03/30 05:00:40;;;;;;;4.85;1.20;;;;;;;10.40;100.00;97667.75;15311733;19;20024;-75
2023/03/30 05:06:23;;;;;;;3.95;1.05;;;;;;;10.67;100.00;97652.06;15327177;19;20897;-74
2023/03/30 05:12:06;;;;;;;2.83;1.02;;;;;;;11.03;100.00;97640.63;15276991;19;20015;-75
2023/03/30 05:17:57;;;;;;;7.13;1.15;;;;;;;11.43;100.00;97655.72;15277032;19;20018;-74
2023/03/30 05:24:00;;;;;;;3.53;1.10;;;;;;;11.54;100.00;97647.16;15272245;19;20743;-74
2023/03/30 05:29:55;;;;;;;4.10;1.10;;;;;;;11.47;100.00;97627.34;15273128;19;20018;-75
2023/03/30 05:35:41;;;;;;;4.70;1.30;;;;;;;11.46;100.00;97601.41;15280895;19;20035;-74
2023/03/30 05:41:27;;;;;;;5.15;1.15;;;;;;;11.32;100.00;97600.38;15286346;19;20022;-75
2023/03/30 05:47:15;;;;;;;3.33;1.10;;;;;;;11.14;100.00;97576.50;15295223;19;20022;-74
2023/03/30 05:52:48;;;;;;;6.32;1.38;;;;;;;11.03;100.00;97559.75;15277601;19;20413;-75
2023/03/30 05:58:51;;;;;;;4.15;1.48;;;;;;;10.93;100.00;97560.06;15268752;19;20018;-75
2023/03/30 06:04:35;;;;;;;3.53;1.33;;;;;;;10.87;100.00;97590.41;15276132;19;20024;-75
2023/03/30 06:10:01;;;;;;;4.40;1.30;;;;;;;10.93;100.00;97560.06;15271984;19;20031;-76
2023/03/30 06:15:30;;;;;;;3.72;1.38;;;;;;;10.99;100.00;97558.47;15273333;19;20549;-75
2023/03/30 06:21:01;;;;;;;2.55;1.30;;;;;;;11.15;100.00;97549.38;15269023;19;21109;-51
2023/03/30 06:26:39;;;;;;;2.83;1.20;;;;;;;11.22;100.00;97530.59;15284830;19;20014;-49
2023/03/30 06:32:08;;;;;;;4.05;1.27;;;;;;;11.22;100.00;97523.31;15280547;19;20441;-49
2023/03/30 06:37:52;;;;;;;4.97;1.17;;;;;;;11.24;100.00;97512.34;15284417;19;20085;-47
2023/03/30 06:43:20;;;;;;;2.22;1.20;;;;;;;11.33;100.00;97511.22;15281596;19;20018;-46
2023/03/30 06:49:00;;;;;;;3.88;1.10;;;;;;;11.49;100.00;97512.00;15281564;19;20014;-47
2023/03/30 06:54:28;;;;;;;4.10;1.40;;;;;;;11.63;100.00;97527.34;15287045;19;20027;-49
2023/03/30 06:59:52;;;;;;;2.95;1.20;;;;;;;11.83;100.00;97543.75;15280945;19;20015;-48
2023/03/30 07:05:27;;;;;;;4.63;1.20;;;;;;;11.97;100.00;97528.53;15283281;19;20031;-46
2023/03/30 07:10:59;;;;;;;4.78;1.45;;;;;;;12.10;100.00;97518.91;15278886;19;20018;-47
2023/03/30 07:16:25;;;;;;;2.53;1.20;;;;;;;12.20;100.00;97519.41;15281638;19;20022;-47
2023/03/30 07:21:53;;;;;;;4.53;1.40;;;;;;;12.24;100.00;97526.13;15284125;19;20015;-46
2023/03/30 07:27:19;;;;;;;3.17;1.30;;;;;;;12.32;100.00;97520.56;15281551;19;20495;-49
2023/03/30 07:32:45;;;;;;;3.58;1.33;;;;;;;12.40;100.00;97543.91;15282314;19;20367;-48
2023/03/30 07:38:18;;;;;;;6.22;1.45;;;;;;;12.51;100.00;97542.56;15275694;19;20025;-47
2023/03/30 07:43:43;;;;;;;4.22;1.40;;;;;;;12.52;100.00;97540.66;15276821;19;20011;-47
2023/03/30 07:49:09;;;;;;;3.28;1.33;;;;;;;12.44;100.00;97561.41;15279596;19;20027;-47
2023/03/30 07:54:36;;;;;;;5.15;1.40;;;;;;;12.39;100.00;97568.41;15280223;19;20507;-47
2023/03/30 08:00:12;;;;;;;4.45;1.30;;;;;;;12.34;100.00;97569.00;15275899;19;20700;-47
2023/03/30 08:06:03;;;;;;;3.53;1.30;;;;;;;12.35;100.00;97567.13;15278339;19;20026;-47
2023/03/30 08:11:34;;;;;;;4.45;1.60;;;;;;;12.31;100.00;97578.31;15274136;19;20029;-48
2023/03/30 08:16:59;;;;;;;4.18;1.45;;;;;;;12.26;100.00;97580.78;15277800;19;20370;-48
2023/03/30 08:22:24;;;;;;;4.00;1.55;;;;;;;12.22;100.00;97582.16;15280651;19;20029;-49
2023/03/30 08:27:52;;;;;;;2.92;1.38;;;;;;;12.12;100.00;97614.06;15278293;19;20050;-47
2023/03/30 08:33:17;;;;;;;4.75;1.50;;;;;;;12.04;100.00;97627.69;15283294;19;20074;-48
2023/03/30 08:38:44;;;;;;;5.53;1.60;;;;;;;12.04;100.00;97623.09;15279463;19;20020;-47
2023/03/30 08:44:19;;;;;;;3.95;1.60;;;;;;;12.07;100.00;97613.78;15272016;19;20471;-47
2023/03/30 08:49:50;;;;;;;4.40;1.67;;;;;;;11.97;100.00;97603.28;15278370;19;20021;-48
2023/03/30 08:55:24;;;;;;;5.10;1.40;;;;;;;11.99;100.00;97596.69;15279969;19;20015;-48
2023/03/30 09:00:57;;;;;;;5.63;1.55;;;;;;;12.01;100.00;97562.25;15274288;19;20086;-47
2023/03/30 09:06:29;;;;;;;3.55;1.40;;;;;;;12.03;100.00;97537.75;15279750;19;20025;-48
2023/03/30 09:11:58;;;;;;;7.07;2.00;;;;;;;12.07;100.00;97559.78;15274930;19;20050;-47
2023/03/30 09:17:32;;;;;;;6.03;1.60;;;;;;;12.10;100.00;97581.00;15275466;19;20466;-49
2023/03/30 09:22:57;;;;;;;4.13;1.60;;;;;;;12.13;100.00;97586.03;15276975;19;20074;-47
2023/03/30 09:28:29;;;;;;;6.28;1.30;;;;;;;12.11;100.00;97607.81;15275171;19;20026;-49
2023/03/30 09:34:06;;;;;;;4.60;1.40;;;;;;;12.19;100.00;97593.34;15277088;19;20351;-48
2023/03/30 09:39:32;;;;;;;4.05;1.23;;;;;;;12.28;100.00;97603.03;15275908;19;20078;-48
2023/03/30 09:45:00;;;;;;;4.63;1.33;;;;;;;12.36;100.00;97617.41;15271389;19;20011;-48
2023/03/30 09:50:30;;;;;;;6.50;1.27;;;;;;;12.48;100.00;97605.06;15272209;19;20011;-49
2023/03/30 09:56:08;;;;;;;2.40;0.93;;;;;;;12.69;100.00;97600.66;15276550;19;20077;-49
2023/03/30 10:01:39;;;;;;;4.65;1.25;;;;;;;12.94;100.00;97588.41;15277175;19;20097;-47
2023/03/30 10:07:06;;;;;;;2.22;1.10;;;;;;;13.23;100.00;97570.25;15277677;19;20035;-50
2023/03/30 10:12:36;;;;;;;2.20;0.95;;;;;;;13.40;100.00;97578.09;15276220;19;20772;-49
2023/03/30 10:18:01;;;;;;;4.13;1.20;;;;;;;13.60;100.00;97561.09;15271347;19;20023;-48
2023/03/30 10:23:38;;;;;;;2.58;1.27;;;;;;;13.75;100.00;97553.66;15274409;19;20428;-49
2023/03/30 10:29:04;;;;;;;2.80;1.00;;;;;;;13.76;100.00;97536.41;15272980;19;20023;-49
2023/03/30 10:34:42;;;;;;;2.13;1.20;;;;;;;13.91;100.00;97532.69;15271849;19;20377;-49
2023/03/30 10:40:17;;;;;;;3.70;1.40;;;;;;;14.05;100.00;97520.84;15270702;19;20021;-48
2023/03/30 10:45:47;;;;;;;3.53;1.30;;;;;;;14.25;100.00;97520.03;15269833;19;20035;-48
2023/03/30 10:51:19;;;;;;;3.42;1.20;;;;;;;14.32;100.00;97513.59;15264425;19;20027;-48
2023/03/30 10:56:51;;;;;;;2.33;1.13;;;;;;;14.64;100.00;97499.41;15274433;19;20022;-47
2023/03/30 11:02:33;;;;;;;2.90;1.27;;;;;;;14.73;100.00;97500.88;15273264;19;20038;-49
2023/03/30 11:08:02;;;;;;;3.97;1.30;;;;;;;14.82;100.00;97484.38;15278180;19;20057;-50
2023/03/30 11:13:33;;;;;;;3.38;1.20;;;;;;;14.92;100.00;97499.19;15285975;19;20463;-49
2023/03/30 11:19:02;;;;;;;2.10;1.00;;;;;;;14.87;100.00;97509.00;15283507;19;20429;-47
2023/03/30 11:24:36;;;;;;;3.65;1.35;;;;;;;14.89;100.00;97493.31;15278159;19;20485;-51
2023/03/30 11:30:14;;;;;;;6.28;1.60;;;;;;;14.89;100.00;97498.75;15280832;19;20022;-51
2023/03/30 11:35:44;;;;;;;3.72;1.45;;;;;;;15.00;100.00;97486.41;15284780;19;20070;-47
2023/03/30 11:41:15;;;;;;;4.28;1.30;;;;;;;15.02;100.00;97468.06;15280329;19;20013;-48
2023/03/30 11:46:50;;;;;;;3.63;1.13;;;;;;;15.29;100.00;97457.94;15282900;19;20391;-51
2023/03/30 11:52:27;;;;;;;2.92;1.30;;;;;;;15.40;100.00;97449.13;15284689;19;20021;-48
2023/03/30 11:57:49;;;;;;;3.65;1.10;;;;;;;15.56;100.00;97442.34;15276933;19;20098;-51
2023/03/30 12:03:28;;;;;;;2.03;1.20;;;;;;;15.57;100.00;97430.44;15281086;19;20098;-51
2023/03/30 12:09:06;;;;;;;4.57;1.52;;;;;;;15.93;100.00;97422.72;15279639;19;20029;-48
2023/03/30 12:14:48;;;;;;;4.57;1.35;;;;;;;16.02;100.00;97413.25;15281884;19;20042;-49
2023/03/30 12:20:21;;;;;;;3.38;1.20;;;;;;;15.89;100.00;97409.78;15274705;19;20022;-53
2023/03/30 12:26:09;;;;;;;5.20;1.40;;;;;;;15.67;100.00;97410.97;15273751;19;20085;-49
2023/03/30 12:32:05;;;;;;;3.58;1.10;;;;;;;15.86;100.00;97384.75;15281869;19;20089;-48
2023/03/30 12:37:36;;;;;;;2.92;1.00;;;;;;;15.82;100.00;97401.66;15279250;19;20022;-49
2023/03/30 12:43:10;;;;;;;4.95;1.30;;;;;;;16.01;100.00;97399.88;15279174;19;20029;-52
2023/03/30 12:48:50;;;;;;;3.15;1.00;;;;;;;16.40;100.00;97383.44;15276647;19;20018;-50
2023/03/30 12:54:31;;;;;;;2.60;0.90;;;;;;;16.32;100.00;97377.22;15280453;19;20089;-52
2023/03/30 13:00:15;;;;;;;3.08;1.00;;;;;;;16.04;100.00;97387.75;15271204;19;20361;-47
2023/03/30 13:05:43;;;;;;;4.32;1.15;;;;;;;15.83;100.00;97392.47;15276334;19;20106;-47
2023/03/30 13:11:20;;;;;;;2.42;0.82;;;;;;;16.14;100.00;97394.31;15276239;19;20018;-50
2023/03/30 13:17:12;;;;;;;2.15;0.90;;;;;;;16.63;100.00;97421.69;15278105;19;20584;-46
2023/03/30 13:22:39;;;;;;;2.22;0.90;;;;;;;16.43;100.00;97413.72;15277717;19;20041;-49
2023/03/30 13:28:37;;;;;;;4.13;1.00;;;;;;;16.73;100.00;97401.28;15277546;19;20021;-50
2023/03/30 13:34:15;;;;;;;1.80;0.90;;;;;;;16.64;100.00;97398.84;15272214;19;20475;-50
2023/03/30 13:39:51;;;;;;;1.88;0.80;;;;;;;16.31;100.00;97397.31;15275395;19;20748;-50
2023/03/30 13:45:40;;;;;;;2.22;0.90;;;;;;;16.53;100.00;97386.00;15274599;19;20042;-49
2023/03/30 13:51:07;;;;;;;3.63;0.90;;;;;;;16.97;100.00;97383.25;15275188;19;20471;-50
2023/03/30 13:56:34;;;;;;;1.35;0.80;;;;;;;16.54;100.00;97411.31;15267964;19;20022;-48
2023/03/30 14:02:05;;;;;;;2.67;0.30;;;;;;;13.90;100.00;97523.72;15277344;19;20011;-52
2023/03/30 14:07:33;;;;;;;4.88;0.63;;;;;;;11.98;100.00;97494.31;15271617;19;20039;-53
2023/03/30 14:13:02;;;;;;;2.13;0.40;;;;;;;11.21;100.00;97526.22;15277831;19;20380;-50
2023/03/30 14:18:33;;;;;;;1.20;0.35;;;;;;;10.75;100.00;97563.09;15270095;19;20028;-52
2023/03/30 14:23:58;;;;;;;0.70;0.30;;;;;;;10.54;100.00;97566.50;15273012;19;20699;-54
2023/03/30 14:29:30;;;;;;;0.95;0.40;;;;;;;10.26;100.00;97593.13;15270009;19;20145;-55
2023/03/30 14:34:58;;;;;;;1.60;0.55;;;;;;;10.10;100.00;97575.22;15267712;19;20739;-54
2023/03/30 14:40:26;;;;;;;2.00;0.52;;;;;;;10.05;100.00;97574.91;15262270;19;20345;-53
2023/03/30 14:45:54;;;;;;;1.10;0.40;;;;;;;9.98;100.00;97577.47;15282177;19;20014;-51
2023/03/30 14:51:45;;;;;;;1.15;0.47;;;;;;;9.95;100.00;97573.31;15283278;19;20066;-56
2023/03/30 14:57:13;;;;;;;1.25;0.50;;;;;;;9.92;100.00;97576.34;15283825;19;20019;-52
2023/03/30 15:02:42;;;;;;;1.25;0.50;;;;;;;9.93;100.00;97580.72;15285912;19;20023;-51
2023/03/30 15:08:19;;;;;;;0.98;0.47;;;;;;;9.90;100.00;97578.38;15274290;19;20388;-51
2023/03/30 15:13:49;;;;;;;1.70;0.60;;;;;;;9.87;100.00;97576.06;15288076;19;20018;-56
2023/03/30 15:19:22;;;;;;;2.63;0.43;;;;;;;9.86;100.00;97595.91;15282602;19;20015;-52
2023/03/30 15:24:51;;;;;;;1.52;0.60;;;;;;;9.84;100.00;97595.22;15280307;19;20090;-53
2023/03/30 15:30:28;;;;;;;1.65;0.50;;;;;;;9.85;100.00;97597.75;15280409;19;20046;-53
2023/03/30 15:35:58;;;;;;;1.27;0.57;;;;;;;9.83;100.00;97597.06;15284939;19;20023;-57
2023/03/30 15:41:46;;;;;;;1.05;0.60;;;;;;;9.92;100.00;97580.91;15275593;19;20024;-52
2023/03/30 15:47:12;;;;;;;2.20;0.43;;;;;;;10.09;100.00;97560.09;15274829;19;20017;-57
2023/03/30 15:52:43;;;;;;;2.13;1.25;;;;;;;10.33;100.00;97564.44;15277864;19;20019;-54
2023/03/30 15:58:11;;;;;;;2.33;0.90;;;;;;;10.92;100.00;97557.53;15281161;19;20022;-54
2023/03/30 16:03:40;;;;;;;2.08;0.70;;;;;;;11.54;100.00;97553.56;15277592;19;20360;-54
2023/03/30 16:09:05;;;;;;;1.27;0.57;;;;;;;11.80;100.00;97537.91;15277951;19;20077;-55
2023/03/30 16:14:36;;;;;;;1.60;0.55;;;;;;;11.96;100.00;97534.94;15274746;19;20037;-52
2023/03/30 16:20:01;;;;;;;0.95;0.50;;;;;;;12.31;100.00;97524.28;15275347;19;20260;-57
2023/03/30 16:25:34;;;;;;;1.90;0.47;;;;;;;12.39;100.00;97525.19;15279790;19;20019;-53
2023/03/30 16:31:08;;;;;;;1.23;0.55;;;;;;;12.40;100.00;97518.78;15276493;19;20031;-56
2023/03/30 16:36:33;;;;;;;2.08;0.70;;;;;;;12.53;100.00;97518.03;15281659;19;20517;-55
2023/03/30 16:41:59;;;;;;;0.73;0.40;;;;;;;12.69;100.00;97525.84;15322089;19;20019;-50
2023/03/30 16:47:26;;;;;;;0.93;0.63;;;;;;;12.90;100.00;97534.94;15341564;19;20019;-45
2023/03/30 16:52:51;;;;;;;1.42;0.60;;;;;;;12.88;100.00;97534.28;15315611;19;20018;-52
2023/03/30 16:58:18;;;;;;;1.20;0.50;;;;;;;12.78;100.00;97546.28;15288223;19;20437;-53
2023/03/30 17:03:47;;;;;;;1.20;0.60;;;;;;;12.64;100.00;97558.84;15299099;19;20008;-51
2023/03/30 17:09:11;;;;;;;1.27;0.55;;;;;;;12.40;100.00;97552.00;15292173;19;20027;-47
2023/03/30 17:14:38;;;;;;;0.52;0.43;;;;;;;11.94;100.00;97558.59;15259526;19;20030;-49
2023/03/30 17:20:08;;;;;;;0.77;0.50;;;;;;;11.53;100.00;97560.00;15263674;19;20378;-47
2023/03/30 17:25:35;;;;;;;1.40;0.55;;;;;;;11.31;100.00;97566.34;15273575;19;20526;-49
2023/03/30 17:31:01;;;;;;;0.73;0.50;;;;;;;11.14;100.00;97577.34;15273799;19;20010;-48
2023/03/30 17:36:31;;;;;;;0.77;0.60;;;;;;;10.95;100.00;97581.41;15274650;19;20096;-48
2023/03/30 17:41:58;;;;;;;0.80;0.70;;;;;;;10.77;100.00;97587.97;15268431;19;20010;-47
2023/03/30 17:47:23;;;;;;;0.75;0.60;;;;;;;10.65;100.00;97594.81;15266898;19;20025;-50
2023/03/30 17:52:50;;;;;;;0.60;0.60;;;;;;;10.67;100.00;97598.19;15263008;19;20491;-50
2023/03/30 17:58:18;;;;;;;0.88;0.70;;;;;;;10.43;100.00;97591.16;15271583;19;20074;-46
2023/03/30 18:03:43;;;;;;;1.85;0.80;;;;;;;10.38;100.00;97586.31;15269598;19;20018;-49
2023/03/30 18:09:16;;;;;;;1.95;0.70;;;;;;;10.25;100.00;97600.34;15267055;19;20010;-47
2023/03/30 18:14:40;;;;;;;1.38;0.70;;;;;;;10.21;100.00;97615.19;15274474;19;20413;-50
2023/03/30 18:20:23;;;;;;;2.40;0.85;;;;;;;10.09;100.00;97605.84;15288447;19;20015;-50
2023/03/30 18:25:51;;;;;;;2.25;0.80;;;;;;;10.03;100.00;97615.47;15283968;19;20019;-48
2023/03/30 18:31:16;;;;;;;2.05;0.70;;;;;;;9.92;100.00;97632.03;15287399;19;20492;-47
2023/03/30 18:36:40;;;;;;;1.27;0.63;;;;;;;9.87;100.00;97630.69;15287946;19;20025;-49
2023/03/30 18:42:08;;;;;;;1.40;0.55;;;;;;;9.89;100.00;97638.56;15282267;19;20022;-47
2023/03/30 18:47:32;;;;;;;1.85;0.75;;;;;;;9.87;100.00;97630.69;15280853;19;20486;-49
2023/03/30 18:52:57;;;;;;;0.82;0.60;;;;;;;9.84;100.00;97628.34;15275623;19;20358;-49
2023/03/30 18:58:26;;;;;;;1.98;0.60;;;;;;;9.84;100.00;97636.41;15285998;19;20022;-54
2023/03/30 19:03:51;;;;;;;2.35;0.70;;;;;;;9.89;100.00;97643.13;15277751;19;20620;-50
2023/03/30 19:09:16;;;;;;;1.25;0.50;;;;;;;9.90;100.00;97652.88;15282377;19;20024;-52
2023/03/30 19:14:56;;;;;;;0.95;0.55;;;;;;;9.93;100.00;97661.44;15285412;19;20466;-52
2023/03/30 19:20:22;;;;;;;1.88;0.60;;;;;;;9.91;100.00;97652.69;15283115;19;20013;-44
2023/03/30 19:25:47;;;;;;;2.80;0.60;;;;;;;9.96;100.00;97663.78;15276981;19;20010;-51
2023/03/30 19:31:17;;;;;;;1.65;0.60;;;;;;;10.01;100.00;97672.13;15281743;19;20018;-49
2023/03/30 19:36:42;;;;;;;1.98;0.70;;;;;;;9.86;100.00;97692.75;15282533;19;20499;-47
2023/03/30 19:42:06;;;;;;;4.38;0.93;;;;;;;9.76;100.00;97695.63;15281509;19;20534;-48
2023/03/30 19:47:34;;;;;;;1.17;0.60;;;;;;;9.68;100.00;97691.13;15279257;19;20026;-49
2023/03/30 19:53:00;;;;;;;1.80;0.80;;;;;;;9.71;100.00;97690.78;15278338;19;20822;-50
2023/03/30 19:58:24;;;;;;;1.95;0.50;;;;;;;9.69;100.00;97694.66;15276331;19;20431;-52
2023/03/30 20:03:53;;;;;;;1.13;0.68;;;;;;;9.74;100.00;97705.72;15277861;19;20019;-51
2023/03/30 20:09:18;;;;;;;1.95;0.82;;;;;;;9.76;100.00;97697.50;15281457;19;20017;-49
2023/03/30 20:14:50;;;;;;;1.63;0.90;;;;;;;9.85;100.00;97691.91;15282827;19;20014;-50
2023/03/30 20:20:23;;;;;;;1.57;0.70;;;;;;;9.90;100.00;97687.84;15281004;19;20074;-50
2023/03/30 20:25:55;;;;;;;2.00;0.73;;;;;;;9.91;100.00;97673.38;15280009;19;20500;-47
2023/03/30 20:31:20;;;;;;;1.90;0.80;;;;;;;9.92;100.00;97669.69;15252082;19;20014;-49
2023/03/30 20:36:48;;;;;;;1.60;0.80;;;;;;;9.87;100.00;97684.50;15278438;19;20020;-48
2023/03/30 20:42:16;;;;;;;1.15;0.63;;;;;;;9.83;100.00;97679.63;15272053;19;20626;-46
2023/03/30 20:47:40;;;;;;;1.48;0.80;;;;;;;9.90;100.00;97677.09;15275287;19;20018;-50
2023/03/30 20:53:08;;;;;;;1.00;0.70;;;;;;;10.00;100.00;97673.16;15275240;19;20014;-52
2023/03/30 20:58:32;;;;;;;0.85;0.60;;;;;;;9.86;100.00;97663.16;15279623;19;20014;-48
2023/03/30 21:03:59;;;;;;;1.08;0.75;;;;;;;9.81;100.00;97663.69;15271607;19;20026;-50
2023/03/30 21:09:28;;;;;;;1.52;0.77;;;;;;;9.78;100.00;97655.97;15278221;19;20514;-53
2023/03/30 21:14:52;;;;;;;1.25;0.63;;;;;;;9.70;100.00;97659.50;15276377;19;20366;-47
2023/03/30 21:20:19;;;;;;;2.13;0.70;;;;;;;9.70;100.00;97656.00;15274906;19;20532;-50
2023/03/30 21:25:46;;;;;;;2.28;0.80;;;;;;;9.79;100.00;97628.03;15276848;19;20010;-50
2023/03/30 21:31:15;;;;;;;1.58;0.70;;;;;;;9.95;100.00;97637.88;15273852;19;20014;-53
2023/03/30 21:36:41;;;;;;;2.25;0.80;;;;;;;9.92;100.00;97649.00;15270152;19;20094;-46
2023/03/30 21:42:09;;;;;;;1.83;0.60;;;;;;;9.99;100.00;97641.91;15275285;19;20497;-46
2023/03/30 21:47:34;;;;;;;2.58;0.90;;;;;;;9.91;100.00;97659.94;15270629;19;20034;-45
2023/03/30 21:52:59;;;;;;;1.98;0.85;;;;;;;9.90;100.00;97666.34;15272011;19;20050;-53
2023/03/30 21:58:27;;;;;;;3.30;0.60;;;;;;;9.94;100.00;97646.09;15274931;19;20016;-46
2023/03/30 22:03:52;;;;;;;2.53;0.75;;;;;;;9.91;100.00;97638.41;15272844;19;20021;-51
2023/03/30 22:09:17;;;;;;;3.20;0.93;;;;;;;9.84;100.00;97628.34;15265325;19;20025;-46
2023/03/30 22:14:51;;;;;;;3.35;1.00;;;;;;;9.80;100.00;97624.34;15274848;19;20795;-45
2023/03/30 22:20:17;;;;;;;2.45;0.93;;;;;;;9.72;100.00;97616.28;15273210;19;20081;-49
2023/03/30 22:25:42;;;;;;;3.30;1.10;;;;;;;9.59;100.00;97611.50;15272303;19;20024;-49
2023/03/30 22:31:11;;;;;;;4.80;1.05;;;;;;;9.42;100.00;97591.91;15270628;19;20082;-47
2023/03/30 22:36:38;;;;;;;3.25;1.02;;;;;;;9.35;100.00;97601.69;15267476;19;20629;-50
2023/03/30 22:42:02;;;;;;;3.35;1.00;;;;;;;9.28;100.00;97608.75;15264904;19;20024;-48
2023/03/30 22:47:30;;;;;;;2.15;0.80;;;;;;;9.21;100.00;97609.47;15270271;19;20010;-44
2023/03/30 22:52:55;;;;;;;3.85;1.10;;;;;;;9.15;100.00;97596.69;15268621;19;20015;-48
2023/03/30 22:58:19;;;;;;;2.83;0.85;;;;;;;9.13;100.00;97606.78;15268774;19;20032;-54
2023/03/30 23:03:47;;;;;;;2.35;0.70;;;;;;;9.17;100.00;97586.63;15273744;19;20015;-48
2023/03/30 23:09:27;;;;;;;2.97;1.10;;;;;;;9.10;100.00;97597.22;15280044;19;20026;-48
2023/03/30 23:14:58;;;;;;;3.30;0.98;;;;;;;9.09;100.00;97594.72;15305754;19;20486;-87
2023/03/30 23:20:46;;;;;;;2.40;0.93;;;;;;;9.01;100.00;97587.50;15309747;19;20090;-86
2023/03/30 23:26:15;;;;;;;3.13;0.88;;;;;;;8.93;100.00;97574.94;15305225;19;20007;-86
2023/03/30 23:31:34;;;;;;;3.13;0.93;;;;;;;8.86;100.00;97582.00;15306858;19;20007;-85
2023/03/30 23:37:08;;;;;;;2.83;0.90;;;;;;;8.77;100.00;97574.97;15303062;19;20279;-86
2023/03/30 23:42:33;;;;;;;2.50;0.98;;;;;;;8.69;100.00;97578.53;15309128;19;20446;-85
2023/03/30 23:48:02;;;;;;;3.65;1.10;;;;;;;8.63;100.00;97569.31;15301372;19;20091;-86
2023/03/30 23:53:23;;;;;;;3.27;1.00;;;;;;;8.55;100.00;97563.91;15303610;19;20377;-88
2023/03/30 23:58:48;;;;;;;3.38;1.13;;;;;;;8.58;100.00;97562.75;15306765;19;20290;-85
